Terminal Aerodrome Forecast
Issued by NWS Springfield, MO

Home | Current Version | Previous Version | Text Only | Print | Product List | Glossary On
Versions: 1 2 3 4 5 6 7 8 9 10 11 12 13 14 15
000
FTUS43 KSGF 291100
TAFSGF
TAF
KSGF 291120Z 2912/3012 VRB02KT P6SM FEW070
     FM291600 33006KT P6SM SCT070
     FM300100 VRB02KT P6SM SCT100=

USA.gov is the U.S. government's official web portal to all federal, state and local government web resources and services.